createdAt,value
2023-03-30T00:01:30.583Z,10.30
2023-03-30T00:04:34.002Z,10.60
2023-03-30T00:07:37.533Z,10.50
2023-03-30T00:10:38.607Z,9.30
2023-03-30T00:13:39.540Z,9.90
2023-03-30T00:16:40.645Z,9.70
2023-03-30T00:19:41.657Z,10.10
2023-03-30T00:22:44.181Z,8.30
2023-03-30T00:25:45.692Z,8.00
2023-03-30T00:28:46.698Z,8.30
2023-03-30T00:31:48.048Z,10.80
2023-03-30T00:34:51.835Z,6.00
2023-03-30T00:37:52.893Z,8.70
2023-03-30T00:40:55.894Z,10.10
2023-03-30T00:44:04.096Z,9.30
2023-03-30T00:47:05.393Z,11.60
2023-03-30T00:50:07.445Z,7.40
2023-03-30T00:53:15.519Z,9.80
2023-03-30T00:56:22.800Z,11.00
2023-03-30T00:59:23.734Z,11.00
2023-03-30T01:02:24.975Z,11.00
2023-03-30T01:05:27.742Z,10.40
2023-03-30T01:08:31.808Z,8.10
2023-03-30T01:11:33.123Z,9.50
2023-03-30T01:14:34.571Z,8.10
2023-03-30T01:17:47.524Z,9.70
2023-03-30T01:21:09.813Z,9.50
2023-03-30T01:24:38.462Z,8.70
2023-03-30T01:27:51.296Z,8.20
2023-03-30T01:31:10.926Z,8.50
2023-03-30T01:34:24.628Z,7.80
2023-03-30T01:37:40.823Z,11.30
2023-03-30T01:41:11.973Z,9.50
2023-03-30T01:44:15.922Z,11.40
2023-03-30T01:47:19.329Z,9.80
2023-03-30T01:50:33.062Z,9.10
2023-03-30T01:53:43.313Z,9.40
2023-03-30T01:56:51.043Z,9.40
2023-03-30T01:59:56.465Z,9.80
2023-03-30T02:03:06.125Z,7.20
2023-03-30T02:06:39.246Z,9.50
2023-03-30T02:09:41.534Z,7.80
2023-03-30T02:12:44.291Z,10.80
2023-03-30T02:15:54.818Z,10.10
2023-03-30T02:18:57.085Z,8.50
2023-03-30T02:21:58.457Z,10.70
2023-03-30T02:25:08.889Z,10.20
2023-03-30T02:28:10.183Z,8.50
2023-03-30T02:31:15.102Z,8.90
2023-03-30T02:34:45.037Z,9.00
2023-03-30T02:38:14.241Z,8.90
2023-03-30T02:41:36.196Z,9.00
2023-03-30T02:44:47.975Z,10.70
2023-03-30T02:47:51.904Z,10.80
2023-03-30T02:51:18.525Z,10.70
2023-03-30T02:54:47.151Z,11.30
2023-03-30T02:58:02.443Z,10.50
2023-03-30T03:01:17.290Z,9.50
2023-03-30T03:04:25.480Z,10.80
2023-03-30T03:07:41.603Z,9.70
2023-03-30T03:10:42.787Z,10.20
2023-03-30T03:13:44.576Z,9.70
2023-03-30T03:16:47.254Z,12.10
2023-03-30T03:19:49.742Z,10.10
2023-03-30T03:22:52.012Z,9.10
2023-03-30T03:25:53.334Z,9.30
2023-03-30T03:28:54.893Z,9.40
2023-03-30T03:31:56.186Z,9.90
2023-03-30T03:34:59.068Z,11.70
2023-03-30T03:38:00.168Z,13.60
2023-03-30T03:41:01.319Z,9.60
2023-03-30T03:44:03.206Z,10.30
2023-03-30T03:47:04.435Z,10.50
2023-03-30T03:50:09.134Z,11.80
2023-03-30T03:53:11.564Z,12.00
2023-03-30T03:56:14.146Z,14.40
2023-03-30T03:59:15.103Z,11.60
2023-03-30T04:02:16.261Z,8.90
2023-03-30T04:05:17.369Z,12.10
2023-03-30T04:08:18.368Z,9.40
2023-03-30T04:11:20.731Z,10.50
2023-03-30T04:14:38.992Z,10.70
2023-03-30T04:17:57.568Z,10.00
2023-03-30T04:24:28.950Z,12.00
2023-03-30T04:28:04.256Z,7.70
2023-03-30T04:31:46.313Z,15.10
2023-03-30T04:35:20.429Z,11.00
2023-03-30T04:38:57.828Z,11.80
2023-03-30T04:42:19.431Z,12.50
2023-03-30T04:45:32.948Z,15.50
2023-03-30T04:49:19.228Z,12.00
2023-03-30T04:52:40.529Z,11.90
2023-03-30T04:56:11.079Z,14.30
2023-03-30T04:59:18.424Z,11.30
2023-03-30T05:02:42.565Z,11.70
2023-03-30T05:05:52.757Z,9.60
2023-03-30T05:09:12.255Z,10.10
2023-03-30T05:12:35.612Z,11.50
2023-03-30T05:15:52.450Z,12.40
2023-03-30T05:19:22.620Z,13.30
2023-03-30T05:22:46.299Z,12.90
2023-03-30T05:26:06.634Z,13.60
2023-03-30T05:29:27.809Z,15.20
2023-03-30T05:32:55.810Z,12.50
2023-03-30T05:36:25.946Z,16.60
2023-03-30T05:39:45.578Z,12.50
2023-03-30T05:43:09.265Z,13.40
2023-03-30T05:46:16.710Z,11.70
2023-03-30T05:49:34.371Z,12.20
2023-03-30T05:53:28.763Z,14.90
2023-03-30T05:56:53.379Z,15.20
2023-03-30T06:00:28.209Z,15.60
2023-03-30T06:03:39.221Z,14.00
2023-03-30T06:06:41.679Z,14.80
2023-03-30T06:09:43.309Z,11.40
2023-03-30T06:13:04.250Z,14.00
2023-03-30T06:16:28.963Z,21.80
2023-03-30T06:19:33.520Z,13.50
2023-03-30T06:25:54.658Z,13.90
2023-03-30T06:29:01.424Z,13.60
2023-03-30T06:32:03.062Z,14.10
2023-03-30T06:35:25.566Z,12.80
2023-03-30T06:38:27.019Z,18.60
2023-03-30T06:41:29.369Z,16.30
2023-03-30T06:44:30.644Z,16.10
2023-03-30T06:47:34.798Z,18.80
2023-03-30T06:50:36.284Z,12.50
2023-03-30T06:53:46.681Z,14.40
2023-03-30T06:56:49.079Z,12.50
2023-03-30T06:59:50.445Z,12.70
2023-03-30T07:02:54.463Z,14.10
2023-03-30T07:06:01.365Z,14.20
2023-03-30T07:09:12.261Z,12.60
2023-03-30T07:12:13.437Z,14.90
2023-03-30T07:15:14.608Z,15.70
2023-03-30T07:18:15.809Z,12.20
2023-03-30T07:21:18.433Z,15.00
2023-03-30T07:24:19.367Z,14.40
2023-03-30T07:27:25.285Z,15.60
2023-03-30T07:30:28.291Z,13.80
2023-03-30T07:33:34.100Z,21.50
2023-03-30T07:36:35.947Z,17.60
2023-03-30T07:39:37.383Z,14.60
2023-03-30T07:42:38.407Z,15.40
2023-03-30T07:45:39.769Z,17.30
2023-03-30T07:48:42.256Z,15.10
2023-03-30T07:51:43.439Z,16.10
2023-03-30T07:55:04.873Z,15.60
2023-03-30T07:58:26.756Z,13.70
2023-03-30T08:01:28.082Z,13.10
2023-03-30T08:04:45.022Z,17.40
2023-03-30T08:07:47.224Z,20.60
2023-03-30T08:10:54.180Z,15.80
2023-03-30T08:14:05.788Z,21.30
2023-03-30T08:17:10.097Z,16.70
2023-03-30T08:20:11.636Z,21.70
2023-03-30T08:23:16.191Z,17.40
2023-03-30T08:26:17.458Z,18.80
2023-03-30T08:29:18.612Z,20.10
2023-03-30T08:32:19.866Z,15.80
2023-03-30T08:35:21.204Z,20.20
2023-03-30T08:38:22.242Z,19.00
2023-03-30T08:41:53.066Z,16.70
2023-03-30T08:44:56.334Z,17.50
2023-03-30T08:47:57.525Z,20.40
2023-03-30T08:51:07.171Z,17.30
2023-03-30T08:54:27.783Z,17.20
2023-03-30T08:57:32.044Z,17.10
2023-03-30T09:00:39.439Z,17.50
2023-03-30T09:03:58.477Z,17.60
2023-03-30T09:07:11.573Z,16.40
2023-03-30T09:10:14.825Z,17.40
2023-03-30T09:13:20.497Z,16.50
2023-03-30T09:16:38.457Z,17.60
2023-03-30T09:19:59.780Z,16.60
2023-03-30T09:23:01.938Z,19.00
2023-03-30T09:26:08.315Z,19.30
2023-03-30T09:29:18.758Z,21.60
2023-03-30T09:32:32.681Z,17.80
2023-03-30T09:35:43.515Z,16.10
2023-03-30T09:38:45.046Z,19.80
2023-03-30T09:42:33.665Z,14.10
2023-03-30T09:45:35.532Z,19.40
2023-03-30T09:48:43.869Z,20.40
2023-03-30T09:52:20.581Z,22.20
2023-03-30T09:55:21.883Z,19.80
2023-03-30T09:58:31.231Z,19.50
2023-03-30T10:01:37.296Z,16.90
2023-03-30T10:04:54.558Z,19.50
2023-03-30T10:07:58.613Z,20.00
2023-03-30T10:11:00.538Z,20.00
2023-03-30T10:14:02.400Z,16.00
2023-03-30T10:17:04.265Z,16.50
2023-03-30T10:20:22.875Z,16.70
2023-03-30T10:23:39.287Z,17.70
2023-03-30T10:26:45.215Z,22.10
2023-03-30T10:29:51.808Z,18.40
2023-03-30T10:32:54.525Z,20.50
2023-03-30T10:35:59.899Z,16.00
2023-03-30T10:39:08.501Z,15.50
2023-03-30T10:42:15.424Z,12.90
2023-03-30T10:45:19.256Z,17.00
2023-03-30T10:48:50.527Z,16.20
2023-03-30T10:52:13.835Z,16.70
2023-03-30T10:55:21.448Z,14.50
2023-03-30T10:58:52.776Z,14.40
2023-03-30T11:01:56.457Z,13.00
2023-03-30T11:08:11.304Z,13.10
2023-03-30T11:11:21.154Z,17.30
2023-03-30T11:14:27.553Z,17.30
2023-03-30T11:18:06.838Z,13.70
2023-03-30T11:21:12.656Z,11.00
2023-03-30T11:24:20.090Z,14.60
2023-03-30T11:27:30.047Z,10.70
2023-03-30T11:33:46.770Z,12.20
2023-03-30T11:36:56.336Z,14.60
2023-03-30T11:40:11.221Z,12.70
2023-03-30T11:43:14.434Z,11.20
2023-03-30T11:46:34.543Z,13.70
2023-03-30T11:49:54.224Z,11.70
2023-03-30T11:53:12.751Z,11.90
2023-03-30T11:56:27.173Z,13.60
2023-03-30T11:59:46.301Z,15.40
2023-03-30T12:03:15.439Z,14.50
2023-03-30T12:06:57.493Z,13.20
2023-03-30T12:10:08.145Z,15.50
2023-03-30T12:13:14.346Z,16.20
2023-03-30T12:16:31.180Z,12.40
2023-03-30T12:20:06.280Z,13.60
2023-03-30T12:24:07.465Z,13.60
2023-03-30T12:27:11.999Z,12.60
2023-03-30T12:30:24.052Z,13.40
2023-03-30T12:33:36.452Z,16.20
2023-03-30T12:36:42.413Z,14.00
2023-03-30T12:39:49.402Z,15.50
2023-03-30T12:43:00.420Z,12.70
2023-03-30T12:46:13.307Z,9.40
2023-03-30T12:49:38.745Z,11.90
2023-03-30T12:52:53.936Z,13.70
2023-03-30T12:56:06.467Z,18.50
2023-03-30T12:59:26.470Z,11.50
2023-03-30T13:02:46.052Z,10.60
2023-03-30T13:05:50.967Z,13.50
2023-03-30T13:08:55.385Z,11.20
2023-03-30T13:15:38.695Z,8.30
2023-03-30T13:18:52.350Z,13.40
2023-03-30T13:22:16.425Z,12.90
2023-03-30T13:25:17.326Z,13.50
2023-03-30T13:28:54.077Z,14.80
2023-03-30T13:32:16.781Z,18.20
2023-03-30T13:35:32.554Z,15.30
2023-03-30T13:38:36.761Z,13.70
2023-03-30T13:41:48.400Z,13.60
2023-03-30T13:44:57.756Z,17.30
2023-03-30T13:48:08.076Z,14.50
2023-03-30T13:51:13.674Z,14.90
2023-03-30T13:54:25.894Z,16.40
2023-03-30T13:57:35.305Z,14.10
2023-03-30T14:00:48.536Z,13.10
2023-03-30T14:03:55.360Z,13.60
2023-03-30T14:06:57.712Z,12.80
2023-03-30T14:10:08.814Z,14.20
2023-03-30T14:13:10.972Z,13.90
2023-03-30T14:16:18.423Z,14.50
2023-03-30T14:19:30.171Z,14.20
2023-03-30T14:22:36.291Z,16.00
2023-03-30T14:25:40.750Z,15.50
2023-03-30T14:28:41.919Z,11.30
2023-03-30T14:31:47.222Z,13.80
2023-03-30T14:34:53.203Z,15.90
2023-03-30T14:37:55.791Z,13.60
2023-03-30T14:41:00.222Z,19.40
2023-03-30T14:44:03.701Z,15.70
2023-03-30T14:47:04.958Z,17.40
2023-03-30T14:50:08.709Z,13.90
2023-03-30T14:53:10.078Z,15.70
2023-03-30T14:56:11.418Z,13.10
2023-03-30T14:59:15.346Z,13.10
2023-03-30T15:02:26.117Z,13.90
2023-03-30T15:05:34.213Z,16.00
2023-03-30T15:08:39.557Z,16.90
2023-03-30T15:11:40.647Z,15.80
2023-03-30T15:14:41.788Z,18.40
2023-03-30T15:17:48.525Z,19.20
2023-03-30T15:20:49.636Z,14.40
2023-03-30T15:23:50.632Z,15.80
2023-03-30T15:26:54.716Z,18.00
2023-03-30T15:29:55.993Z,15.40
2023-03-30T15:32:57.198Z,16.10
2023-03-30T15:36:07.222Z,15.10
2023-03-30T15:39:21.864Z,14.60
2023-03-30T15:42:31.744Z,15.70
2023-03-30T15:45:35.239Z,15.80
2023-03-30T15:48:43.133Z,15.90
2023-03-30T15:51:54.204Z,15.50
2023-03-30T15:54:55.174Z,15.10
2023-03-30T15:57:56.274Z,13.30
2023-03-30T16:00:57.458Z,19.70
2023-03-30T16:07:12.602Z,14.60
2023-03-30T16:10:23.948Z,17.90
2023-03-30T16:13:24.948Z,16.90
2023-03-30T16:16:26.089Z,15.80
2023-03-30T16:19:27.018Z,19.80
2023-03-30T16:22:27.999Z,13.60
2023-03-30T16:28:32.852Z,14.90
2023-03-30T16:31:34.252Z,17.80
2023-03-30T16:34:38.741Z,18.20
2023-03-30T16:37:41.273Z,17.20
2023-03-30T16:40:52.094Z,18.70
2023-03-30T16:43:53.053Z,14.70
2023-03-30T16:46:54.579Z,14.10
2023-03-30T16:49:55.514Z,22.80
2023-03-30T16:52:56.527Z,18.50
2023-03-30T16:55:57.552Z,17.80
2023-03-30T16:59:08.788Z,17.20
2023-03-30T17:02:13.002Z,22.50
2023-03-30T17:05:17.244Z,19.10
2023-03-30T17:08:21.138Z,17.90
2023-03-30T17:11:24.937Z,16.00
2023-03-30T17:14:27.002Z,19.50
2023-03-30T17:17:28.091Z,17.50
2023-03-30T17:20:34.013Z,17.60
2023-03-30T17:23:35.189Z,19.10
2023-03-30T17:26:36.262Z,16.20
2023-03-30T17:29:37.997Z,17.20
2023-03-30T17:32:39.070Z,19.30
2023-03-30T17:35:40.422Z,16.10
2023-03-30T17:38:43.265Z,15.10
2023-03-30T17:41:44.808Z,19.40
2023-03-30T17:44:45.766Z,19.70
2023-03-30T17:47:46.979Z,16.50
2023-03-30T17:50:49.661Z,16.30
2023-03-30T17:53:50.687Z,15.90
2023-03-30T17:56:51.718Z,16.00
2023-03-30T17:59:52.725Z,18.50
2023-03-30T18:02:54.318Z,15.10
2023-03-30T18:05:56.449Z,13.90
2023-03-30T18:08:57.360Z,17.50
2023-03-30T18:11:59.540Z,16.70
2023-03-30T18:15:00.547Z,14.10
2023-03-30T18:18:01.863Z,18.10
2023-03-30T18:21:04.510Z,20.10
2023-03-30T18:24:07.049Z,18.10
2023-03-30T18:27:08.094Z,21.30
2023-03-30T18:30:20.689Z,20.20
2023-03-30T18:33:22.031Z,20.20
2023-03-30T18:36:23.096Z,20.40
2023-03-30T18:39:24.022Z,21.60
2023-03-30T18:42:24.937Z,19.10
2023-03-30T18:45:37.050Z,19.70
2023-03-30T18:48:40.900Z,20.00
2023-03-30T18:51:44.313Z,16.70
2023-03-30T18:54:45.512Z,17.30
2023-03-30T18:57:58.777Z,19.00
2023-03-30T19:01:00.321Z,18.00
2023-03-30T19:04:01.708Z,17.80
2023-03-30T19:07:02.892Z,14.30
2023-03-30T19:10:06.249Z,20.80
2023-03-30T19:13:09.336Z,15.40
2023-03-30T19:16:21.617Z,20.60
2023-03-30T19:19:22.834Z,14.30
2023-03-30T19:22:24.159Z,17.40
2023-03-30T19:25:31.164Z,14.80
2023-03-30T19:28:32.900Z,17.80
2023-03-30T19:31:35.958Z,15.90
2023-03-30T19:34:36.983Z,15.80
2023-03-30T19:37:40.466Z,15.60
2023-03-30T19:40:41.854Z,16.80
2023-03-30T19:43:44.854Z,21.30
2023-03-30T19:46:45.908Z,20.30
2023-03-30T19:49:49.628Z,19.50
2023-03-30T19:52:54.469Z,19.60
2023-03-30T19:55:57.937Z,23.00
2023-03-30T19:59:05.239Z,17.60
2023-03-30T20:02:06.393Z,23.50
2023-03-30T20:05:30.787Z,17.70
2023-03-30T20:08:32.213Z,21.30
2023-03-30T20:11:33.545Z,20.90
2023-03-30T20:14:34.859Z,19.30
2023-03-30T20:17:37.605Z,20.20
2023-03-30T20:20:39.872Z,21.60
2023-03-30T20:23:40.829Z,17.20
2023-03-30T20:26:51.223Z,16.20
2023-03-30T20:29:52.260Z,14.30
2023-03-30T20:33:06.788Z,15.80
2023-03-30T20:36:09.284Z,17.20
2023-03-30T20:39:13.201Z,16.40
2023-03-30T20:45:25.253Z,17.60
2023-03-30T20:48:32.881Z,15.90
2023-03-30T20:51:35.341Z,15.40
2023-03-30T20:54:37.097Z,17.80
2023-03-30T20:57:38.171Z,15.00
2023-03-30T21:00:39.171Z,18.40
2023-03-30T21:03:43.525Z,17.20
2023-03-30T21:06:45.506Z,20.40
2023-03-30T21:09:55.872Z,14.60
2023-03-30T21:12:56.826Z,15.50
2023-03-30T21:16:07.491Z,17.60
2023-03-30T21:19:08.849Z,14.70
2023-03-30T21:22:09.886Z,15.60
2023-03-30T21:25:12.169Z,17.40
2023-03-30T21:28:14.355Z,18.70
2023-03-30T21:31:16.470Z,18.50
2023-03-30T21:34:18.175Z,19.00
2023-03-30T21:37:19.295Z,20.50
2023-03-30T21:40:20.430Z,19.60
2023-03-30T21:43:21.389Z,17.40
2023-03-30T21:46:26.778Z,20.30
2023-03-30T21:49:39.008Z,20.70
2023-03-30T21:52:42.545Z,20.90
2023-03-30T21:55:46.057Z,17.50
2023-03-30T21:58:47.357Z,15.60
2023-03-30T22:04:59.300Z,14.10
2023-03-30T22:08:03.621Z,13.20
2023-03-30T22:11:12.235Z,16.40
2023-03-30T22:14:13.328Z,15.90
2023-03-30T22:17:14.362Z,16.50
2023-03-30T22:20:16.198Z,18.20
2023-03-30T22:23:17.416Z,17.00
2023-03-30T22:26:18.606Z,16.60
2023-03-30T22:29:20.191Z,16.90
2023-03-30T22:32:21.501Z,16.30
2023-03-30T22:35:22.764Z,16.70
2023-03-30T22:38:23.764Z,20.00
2023-03-30T22:41:34.265Z,18.70
2023-03-30T22:44:44.042Z,19.90
2023-03-30T22:47:45.189Z,18.10
2023-03-30T22:50:46.329Z,21.10
2023-03-30T22:53:50.459Z,19.10
2023-03-30T22:59:52.543Z,15.80
2023-03-30T23:03:02.560Z,15.90
2023-03-30T23:06:03.934Z,17.10
2023-03-30T23:09:06.068Z,21.30
2023-03-30T23:12:07.764Z,20.40
2023-03-30T23:15:10.042Z,18.00
2023-03-30T23:18:11.579Z,19.70
2023-03-30T23:21:13.291Z,19.60
2023-03-30T23:24:23.397Z,17.30
2023-03-30T23:27:24.386Z,20.00
2023-03-30T23:30:25.572Z,20.10
2023-03-30T23:33:26.607Z,20.90
2023-03-30T23:36:30.520Z,19.90
2023-03-30T23:39:32.360Z,20.10
2023-03-30T23:42:35.945Z,20.50
2023-03-30T23:45:38.001Z,18.30
2023-03-30T23:48:39.727Z,23.60
2023-03-30T23:51:40.817Z,18.40
2023-03-30T23:54:41.915Z,18.70
2023-03-30T23:57:46.108Z,17.80
